createdAt,value
2023-04-16T00:00:30.099Z,2.45
2023-04-16T00:02:57.470Z,2.25
2023-04-16T00:05:24.853Z,2.60
2023-04-16T00:07:52.899Z,2.60
2023-04-16T00:10:20.491Z,2.33
2023-04-16T00:12:47.701Z,2.17
2023-04-16T00:15:14.976Z,2.35
2023-04-16T00:17:42.204Z,2.42
2023-04-16T00:20:09.624Z,2.53
2023-04-16T00:22:36.833Z,2.15
2023-04-16T00:25:04.353Z,2.03
2023-04-16T00:27:33.828Z,2.50
2023-04-16T00:30:01.083Z,2.22
2023-04-16T00:32:31.710Z,2.90
2023-04-16T00:34:58.916Z,2.15
2023-04-16T00:37:26.076Z,2.15
2023-04-16T00:39:53.220Z,2.58
2023-04-16T00:42:20.498Z,2.50
2023-04-16T00:44:47.671Z,2.60
2023-04-16T00:47:14.742Z,2.10
2023-04-16T00:49:42.130Z,2.50
2023-04-16T00:52:09.644Z,2.88
2023-04-16T00:54:36.887Z,2.15
2023-04-16T00:57:04.641Z,2.42
2023-04-16T00:59:31.765Z,2.25
2023-04-16T01:01:59.063Z,2.75
2023-04-16T01:04:26.641Z,2.83
2023-04-16T01:06:54.138Z,2.60
2023-04-16T01:09:21.662Z,2.58
2023-04-16T01:11:49.856Z,2.72
2023-04-16T01:14:16.993Z,2.40
2023-04-16T01:16:44.171Z,2.45
2023-04-16T01:19:11.819Z,3.35
2023-04-16T01:21:39.287Z,3.85
2023-04-16T01:24:06.697Z,3.13
2023-04-16T01:26:34.058Z,3.00
2023-04-16T01:29:01.275Z,3.60
2023-04-16T01:31:28.570Z,3.75
2023-04-16T01:34:06.179Z,3.78
2023-04-16T01:36:35.064Z,3.83
2023-04-16T01:39:02.405Z,3.40
2023-04-16T01:41:29.761Z,4.75
2023-04-16T01:43:57.035Z,3.83
2023-04-16T01:46:30.467Z,3.47
2023-04-16T01:48:58.289Z,3.97
2023-04-16T01:51:25.662Z,4.20
2023-04-16T01:53:52.835Z,4.30
2023-04-16T01:56:20.220Z,3.45
2023-04-16T01:58:47.691Z,3.88
2023-04-16T02:01:16.818Z,3.83
2023-04-16T02:03:45.545Z,3.65
2023-04-16T02:06:12.957Z,3.72
2023-04-16T02:08:40.927Z,3.50
2023-04-16T02:11:08.434Z,4.40
2023-04-16T02:13:36.171Z,4.07
2023-04-16T02:16:03.595Z,4.25
2023-04-16T02:18:48.053Z,4.00
2023-04-16T02:21:17.347Z,5.03
2023-04-16T02:23:47.767Z,4.53
2023-04-16T02:26:15.493Z,4.32
2023-04-16T02:28:43.672Z,4.65
2023-04-16T02:31:12.173Z,4.57
2023-04-16T02:33:43.940Z,4.30
2023-04-16T02:36:11.272Z,4.70
2023-04-16T02:38:38.720Z,4.57
2023-04-16T02:41:06.752Z,4.75
2023-04-16T02:43:34.732Z,5.03
2023-04-16T02:46:02.526Z,4.20
2023-04-16T02:48:29.751Z,4.63
2023-04-16T02:50:56.946Z,4.45
2023-04-16T02:53:24.428Z,4.47
2023-04-16T02:55:55.460Z,4.43
2023-04-16T02:58:24.145Z,4.05
2023-04-16T03:00:51.713Z,5.15
2023-04-16T03:03:19.265Z,4.68
2023-04-16T03:05:46.710Z,4.72
2023-04-16T03:08:14.301Z,4.50
2023-04-16T03:10:41.756Z,4.90
2023-04-16T03:13:09.134Z,6.35
2023-04-16T03:15:36.372Z,5.47
2023-04-16T03:18:04.094Z,5.03
2023-04-16T03:20:31.870Z,4.93
2023-04-16T03:22:59.228Z,4.65
2023-04-16T03:25:26.512Z,5.13
2023-04-16T03:27:53.896Z,5.72
2023-04-16T03:30:21.174Z,5.22
2023-04-16T03:32:48.368Z,5.55
2023-04-16T03:35:16.484Z,6.40
2023-04-16T03:37:43.852Z,5.90
2023-04-16T03:40:11.381Z,5.72
2023-04-16T03:42:38.752Z,5.30
2023-04-16T03:45:06.544Z,5.60
2023-04-16T03:47:33.801Z,5.15
2023-04-16T03:50:03.687Z,5.85
2023-04-16T03:52:30.965Z,6.03
2023-04-16T03:54:58.192Z,5.70
2023-04-16T03:57:28.295Z,6.07
2023-04-16T04:00:01.010Z,5.82
2023-04-16T04:02:30.780Z,6.30
2023-04-16T04:04:58.108Z,5.63
2023-04-16T04:07:25.322Z,6.80
2023-04-16T04:09:53.137Z,6.20
2023-04-16T04:12:20.931Z,6.30
2023-04-16T04:14:48.459Z,6.72
2023-04-16T04:17:15.600Z,6.35
2023-04-16T04:19:54.244Z,5.97
2023-04-16T04:22:28.104Z,6.32
2023-04-16T04:24:55.640Z,6.13
2023-04-16T04:27:23.254Z,6.78
2023-04-16T04:29:50.793Z,6.32
2023-04-16T04:32:18.201Z,6.32
2023-04-16T04:34:47.643Z,6.40
2023-04-16T04:37:16.070Z,6.53
2023-04-16T04:39:44.592Z,6.82
2023-04-16T04:42:13.095Z,6.78
2023-04-16T04:44:40.540Z,6.70
2023-04-16T04:47:08.973Z,6.82
2023-04-16T04:49:36.351Z,6.93
2023-04-16T04:52:03.776Z,7.60
2023-04-16T04:54:32.774Z,6.82
2023-04-16T04:57:00.276Z,7.40
2023-04-16T04:59:29.047Z,7.90
2023-04-16T05:01:56.368Z,7.63
2023-04-16T05:04:23.577Z,7.32
2023-04-16T05:06:51.007Z,7.40
2023-04-16T05:09:18.304Z,7.25
2023-04-16T05:11:45.445Z,6.53
2023-04-16T05:14:12.636Z,7.25
2023-04-16T05:16:39.798Z,6.10
2023-04-16T05:19:07.072Z,7.35
2023-04-16T05:21:34.205Z,7.85
2023-04-16T05:24:01.307Z,7.78
2023-04-16T05:26:28.411Z,7.93
2023-04-16T05:28:55.865Z,7.57
2023-04-16T05:31:23.186Z,7.25
2023-04-16T05:33:50.490Z,7.22
2023-04-16T05:36:17.638Z,8.13
2023-04-16T05:38:44.786Z,7.65
2023-04-16T05:41:11.937Z,7.78
2023-04-16T05:43:39.125Z,8.50
2023-04-16T05:46:06.358Z,8.15
2023-04-16T05:48:33.464Z,8.25
2023-04-16T05:51:02.373Z,8.10
2023-04-16T05:53:29.663Z,8.80
2023-04-16T05:55:56.984Z,8.45
2023-04-16T05:58:24.130Z,7.95
2023-04-16T06:00:51.686Z,9.00
2023-04-16T06:03:19.151Z,9.05
2023-04-16T06:05:46.413Z,7.72
2023-04-16T06:08:13.943Z,7.70
2023-04-16T06:10:41.192Z,8.05
2023-04-16T06:13:08.323Z,8.90
2023-04-16T06:15:35.574Z,8.45
2023-04-16T06:18:02.919Z,8.75
2023-04-16T06:20:30.384Z,8.27
2023-04-16T06:23:00.400Z,7.80
2023-04-16T06:25:27.611Z,8.10
2023-04-16T06:27:54.862Z,9.38
2023-04-16T06:30:22.001Z,8.15
2023-04-16T06:32:50.503Z,8.70
2023-04-16T06:35:20.428Z,8.50
2023-04-16T06:37:47.714Z,8.27
2023-04-16T06:40:14.843Z,8.85
2023-04-16T06:42:45.330Z,8.35
2023-04-16T06:45:13.011Z,8.35
2023-04-16T06:47:40.656Z,7.90
2023-04-16T06:50:08.190Z,7.25
2023-04-16T06:52:35.420Z,7.70
2023-04-16T06:55:02.717Z,7.75
2023-04-16T06:57:29.993Z,8.02
2023-04-16T06:59:57.314Z,8.15
2023-04-16T07:02:24.998Z,8.60
2023-04-16T07:04:52.485Z,8.65
2023-04-16T07:07:19.794Z,7.93
2023-04-16T07:09:46.905Z,8.35
2023-04-16T07:12:14.357Z,8.43
2023-04-16T07:14:42.090Z,8.52
2023-04-16T07:17:09.312Z,8.80
2023-04-16T07:19:37.153Z,9.00
2023-04-16T07:22:04.710Z,9.05
2023-04-16T07:24:32.367Z,8.75
2023-04-16T07:26:59.609Z,8.73
2023-04-16T07:29:30.166Z,8.82
2023-04-16T07:31:58.042Z,10.10
2023-04-16T07:34:25.260Z,9.10
2023-04-16T07:36:52.386Z,10.15
2023-04-16T07:39:19.479Z,7.60
2023-04-16T07:41:46.703Z,8.80
2023-04-16T07:44:13.988Z,7.65
2023-04-16T07:46:46.839Z,7.47
2023-04-16T07:49:14.818Z,7.35
2023-04-16T07:51:41.975Z,6.97
2023-04-16T07:54:09.399Z,7.22
2023-04-16T07:56:36.732Z,7.05
2023-04-16T07:59:18.529Z,6.55
2023-04-16T08:01:50.058Z,6.82
2023-04-16T08:04:23.466Z,6.57
2023-04-16T08:06:51.519Z,4.88
2023-04-16T08:09:19.686Z,5.93
2023-04-16T08:11:47.136Z,6.15
2023-04-16T08:14:14.229Z,5.50
2023-04-16T08:16:42.009Z,5.85
2023-04-16T08:19:09.661Z,5.65
2023-04-16T08:21:37.059Z,6.18
2023-04-16T08:24:04.478Z,6.20
2023-04-16T08:26:31.546Z,5.80
2023-04-16T08:28:58.842Z,5.28
2023-04-16T08:31:26.218Z,4.97
2023-04-16T08:33:53.532Z,5.35
2023-04-16T08:36:20.852Z,5.00
2023-04-16T08:38:48.294Z,5.45
2023-04-16T08:41:15.696Z,4.88
2023-04-16T08:43:45.119Z,4.93
2023-04-16T08:46:13.162Z,5.15
2023-04-16T08:48:43.332Z,4.70
2023-04-16T08:51:11.935Z,5.25
2023-04-16T08:54:02.120Z,5.85
2023-04-16T08:56:29.553Z,4.70
2023-04-16T08:58:58.455Z,5.55
2023-04-16T09:01:26.927Z,5.15
2023-04-16T09:03:54.848Z,5.28
2023-04-16T09:06:22.352Z,4.80
2023-04-16T09:08:49.954Z,4.85
2023-04-16T09:11:20.661Z,4.78
2023-04-16T09:13:48.153Z,4.82
2023-04-16T09:16:15.591Z,4.55
2023-04-16T09:18:42.851Z,3.85
2023-04-16T09:21:11.351Z,4.50
2023-04-16T09:23:40.291Z,4.00
2023-04-16T09:26:07.675Z,4.25
2023-04-16T09:28:44.157Z,4.10
2023-04-16T09:33:38.930Z,4.13
2023-04-16T09:36:07.750Z,4.50
2023-04-16T09:38:48.194Z,4.50
2023-04-16T09:41:18.980Z,4.30
2023-04-16T09:44:04.211Z,4.70
2023-04-16T09:46:39.818Z,4.65
2023-04-16T09:49:10.966Z,4.85
2023-04-16T09:51:39.133Z,5.55
2023-04-16T09:54:06.875Z,4.80
2023-04-16T09:56:35.625Z,5.05
2023-04-16T09:59:03.261Z,5.72
2023-04-16T10:01:31.293Z,4.90
2023-04-16T10:04:00.433Z,4.97
2023-04-16T10:06:30.020Z,4.70
2023-04-16T10:08:57.497Z,5.45
2023-04-16T10:11:25.167Z,5.90
2023-04-16T10:13:52.405Z,5.57
2023-04-16T10:16:19.713Z,6.07
2023-04-16T10:18:47.622Z,5.20
2023-04-16T10:21:16.326Z,6.22
2023-04-16T10:23:44.364Z,6.40
2023-04-16T10:26:11.826Z,6.53
2023-04-16T10:28:39.812Z,6.10
2023-04-16T10:31:08.759Z,6.72
2023-04-16T10:33:37.228Z,6.85
2023-04-16T10:36:12.843Z,5.70
2023-04-16T10:38:46.547Z,7.32
2023-04-16T10:41:14.070Z,6.05
2023-04-16T10:43:43.690Z,7.22
2023-04-16T10:46:21.038Z,7.80
2023-04-16T10:48:50.669Z,9.05
2023-04-16T10:51:26.705Z,7.78
2023-04-16T10:53:55.308Z,8.27
2023-04-16T10:56:27.101Z,8.00
2023-04-16T10:58:57.319Z,8.20
2023-04-16T11:03:52.869Z,7.88
2023-04-16T11:06:27.086Z,8.25
2023-04-16T11:08:55.457Z,7.55
2023-04-16T11:11:22.904Z,7.78
2023-04-16T11:13:50.160Z,8.43
2023-04-16T11:16:17.703Z,8.15
2023-04-16T11:18:51.159Z,8.30
2023-04-16T11:21:19.006Z,8.27
2023-04-16T11:23:47.476Z,7.97
2023-04-16T11:26:41.156Z,8.05
2023-04-16T11:29:15.683Z,7.00
2023-04-16T11:31:43.031Z,7.10
2023-04-16T11:34:10.196Z,7.70
2023-04-16T11:36:51.306Z,6.88
2023-04-16T11:39:18.904Z,6.75
2023-04-16T11:41:52.314Z,7.07
2023-04-16T11:44:20.695Z,5.32
2023-04-16T11:46:49.392Z,6.18
2023-04-16T11:49:19.718Z,7.10
2023-04-16T11:54:21.472Z,6.05
2023-04-16T11:56:49.568Z,7.10
2023-04-16T11:59:21.236Z,6.97
2023-04-16T12:01:49.976Z,7.57
2023-04-16T12:04:19.533Z,6.20
2023-04-16T12:07:05.139Z,7.13
2023-04-16T12:09:32.316Z,6.05
2023-04-16T12:11:59.654Z,6.78
2023-04-16T12:14:26.920Z,6.32
2023-04-16T12:16:55.868Z,7.55
2023-04-16T12:19:23.074Z,6.72
2023-04-16T12:21:51.309Z,6.60
2023-04-16T12:24:24.517Z,7.05
2023-04-16T12:27:03.148Z,7.78
2023-04-16T12:29:31.911Z,7.22
2023-04-16T12:31:59.108Z,7.47
2023-04-16T12:34:47.979Z,7.00
2023-04-16T12:37:14.985Z,6.57
2023-04-16T12:39:42.771Z,7.25
2023-04-16T12:42:11.300Z,6.43
2023-04-16T12:44:38.804Z,7.00
2023-04-16T12:47:08.168Z,6.50
2023-04-16T12:49:36.490Z,8.05
2023-04-16T12:52:03.819Z,7.50
2023-04-16T12:54:31.419Z,7.20
2023-04-16T12:56:58.608Z,7.15
2023-04-16T12:59:25.871Z,6.70
2023-04-16T13:01:53.119Z,7.05
2023-04-16T13:04:21.552Z,7.53
2023-04-16T13:06:50.749Z,7.45
2023-04-16T13:09:19.405Z,6.78
2023-04-16T13:11:46.822Z,7.38
2023-04-16T13:14:13.969Z,7.53
2023-04-16T13:16:41.158Z,7.47
2023-04-16T13:19:08.969Z,7.72
2023-04-16T13:21:36.430Z,8.35
2023-04-16T13:24:03.803Z,8.68
2023-04-16T13:26:30.719Z,9.30
2023-04-16T13:28:58.127Z,10.10
2023-04-16T13:31:26.013Z,10.10
2023-04-16T13:33:53.257Z,9.88
2023-04-16T13:36:20.790Z,9.35
2023-04-16T13:38:47.940Z,10.02
2023-04-16T13:41:15.100Z,9.95
2023-04-16T13:43:42.355Z,8.95
2023-04-16T13:46:09.524Z,8.88
2023-04-16T13:48:36.644Z,10.20
2023-04-16T13:51:04.130Z,10.48
2023-04-16T13:53:30.949Z,10.65
2023-04-16T13:55:58.133Z,11.15
2023-04-16T13:58:25.519Z,9.68
2023-04-16T14:00:52.402Z,9.30
2023-04-16T14:03:19.879Z,10.57
2023-04-16T14:05:47.196Z,9.55
2023-04-16T14:08:16.469Z,9.55
2023-04-16T14:10:43.606Z,9.95
2023-04-16T14:13:11.079Z,9.23
2023-04-16T14:15:38.731Z,9.18
2023-04-16T14:18:05.961Z,8.85
2023-04-16T14:20:33.336Z,9.50
2023-04-16T14:23:00.507Z,9.52
2023-04-16T14:25:27.736Z,9.15
2023-04-16T14:27:55.262Z,9.68
2023-04-16T14:30:22.071Z,8.60
2023-04-16T14:32:49.186Z,8.45
2023-04-16T14:35:16.332Z,8.57
2023-04-16T14:37:43.501Z,8.18
2023-04-16T14:40:12.221Z,8.10
2023-04-16T14:42:39.588Z,8.07
2023-04-16T14:45:07.442Z,8.90
2023-04-16T14:47:35.180Z,8.20
2023-04-16T14:50:02.704Z,8.68
2023-04-16T14:52:33.153Z,9.48
2023-04-16T14:55:00.458Z,8.93
2023-04-16T14:57:27.919Z,8.20
2023-04-16T14:59:55.085Z,8.63
2023-04-16T15:02:22.680Z,8.13
2023-04-16T15:04:49.980Z,8.43
2023-04-16T15:07:17.140Z,8.50
2023-04-16T15:09:44.309Z,8.23
2023-04-16T15:12:11.601Z,7.85
2023-04-16T15:14:40.190Z,7.45
2023-04-16T15:17:07.813Z,8.48
2023-04-16T15:19:35.120Z,8.45
2023-04-16T15:22:02.404Z,8.73
2023-04-16T15:24:29.539Z,8.65
2023-04-16T15:26:56.662Z,8.75
2023-04-16T15:29:23.848Z,8.18
2023-04-16T15:31:50.857Z,8.70
2023-04-16T15:34:17.892Z,7.93
2023-04-16T15:36:46.614Z,8.55
2023-04-16T15:39:14.027Z,9.73
2023-04-16T15:41:53.715Z,8.85
2023-04-16T15:44:27.556Z,8.25
2023-04-16T15:46:54.810Z,8.38
2023-04-16T15:49:24.524Z,8.10
2023-04-16T15:51:52.071Z,8.00
2023-04-16T15:54:19.392Z,8.85
2023-04-16T15:56:46.828Z,8.55
2023-04-16T15:59:14.162Z,8.43
2023-04-16T16:01:41.574Z,8.93
2023-04-16T16:04:09.334Z,8.65
2023-04-16T16:06:38.159Z,8.65
2023-04-16T16:09:05.092Z,9.07
2023-04-16T16:11:32.676Z,8.85
2023-04-16T16:14:02.816Z,8.88
2023-04-16T16:16:31.050Z,8.45
2023-04-16T16:18:58.238Z,8.90
2023-04-16T16:21:26.213Z,9.32
2023-04-16T16:23:53.429Z,9.25
2023-04-16T16:26:22.934Z,9.98
2023-04-16T16:28:50.316Z,9.57
2023-04-16T16:31:17.571Z,9.25
2023-04-16T16:33:44.715Z,9.57
2023-04-16T16:36:12.164Z,10.13
2023-04-16T16:38:42.798Z,9.48
2023-04-16T16:41:09.984Z,10.60
2023-04-16T16:43:37.187Z,9.98
2023-04-16T16:46:05.738Z,10.77
2023-04-16T16:48:32.946Z,9.82
2023-04-16T16:51:00.596Z,10.73
2023-04-16T16:53:27.820Z,9.63
2023-04-16T16:55:54.996Z,10.35
2023-04-16T16:58:22.132Z,10.70
2023-04-16T17:00:49.320Z,9.48
2023-04-16T17:03:17.111Z,10.52
2023-04-16T17:05:44.511Z,9.85
2023-04-16T17:08:11.963Z,10.50
2023-04-16T17:10:39.056Z,10.50
2023-04-16T17:13:06.726Z,11.50
2023-04-16T17:15:33.984Z,11.25
2023-04-16T17:18:01.365Z,10.07
2023-04-16T17:20:28.675Z,11.50
2023-04-16T17:22:55.863Z,10.25
2023-04-16T17:25:22.988Z,9.35
2023-04-16T17:27:50.205Z,9.70
2023-04-16T17:30:17.488Z,9.80
2023-04-16T17:32:44.813Z,10.40
2023-04-16T17:35:13.708Z,10.35
2023-04-16T17:37:40.858Z,9.25
2023-04-16T17:40:08.235Z,10.07
2023-04-16T17:42:36.145Z,10.00
2023-04-16T17:45:03.487Z,9.98
2023-04-16T17:47:30.890Z,10.25
2023-04-16T17:49:58.371Z,9.57
2023-04-16T17:52:25.773Z,12.18
2023-04-16T17:54:56.681Z,11.55
2023-04-16T17:57:24.031Z,10.27
2023-04-16T17:59:51.640Z,10.65
2023-04-16T18:02:19.559Z,11.93
2023-04-16T18:04:47.137Z,10.25
2023-04-16T18:07:14.591Z,11.20
2023-04-16T18:09:42.340Z,10.73
2023-04-16T18:12:09.550Z,11.13
2023-04-16T18:14:37.270Z,10.95
2023-04-16T18:17:06.334Z,12.18
2023-04-16T18:19:35.455Z,12.25
2023-04-16T18:22:03.090Z,11.15
2023-04-16T18:24:30.324Z,12.00
2023-04-16T18:26:57.489Z,11.57
2023-04-16T18:29:25.477Z,11.52
2023-04-16T18:31:52.792Z,11.18
2023-04-16T18:34:20.792Z,11.23
2023-04-16T18:36:48.027Z,11.10
2023-04-16T18:39:16.181Z,12.57
2023-04-16T18:41:43.804Z,12.32
2023-04-16T18:44:11.179Z,12.60
2023-04-16T18:46:38.312Z,13.32
2023-04-16T18:49:05.533Z,12.75
2023-04-16T18:51:32.927Z,12.63
2023-04-16T18:54:00.229Z,13.30
2023-04-16T18:56:29.779Z,12.52
2023-04-16T18:58:56.933Z,13.57
2023-04-16T19:01:25.548Z,12.68
2023-04-16T19:03:52.858Z,12.95
2023-04-16T19:06:20.056Z,13.60
2023-04-16T19:08:47.499Z,13.95
2023-04-16T19:11:14.756Z,11.70
2023-04-16T19:13:41.869Z,12.38
2023-04-16T19:16:11.573Z,12.68
2023-04-16T19:18:39.555Z,12.68
2023-04-16T19:21:09.523Z,14.98
2023-04-16T19:23:36.812Z,13.68
2023-04-16T19:26:04.097Z,13.43
2023-04-16T19:28:31.235Z,13.15
2023-04-16T19:30:58.366Z,13.48
2023-04-16T19:33:25.687Z,13.18
2023-04-16T19:35:53.060Z,14.40
2023-04-16T19:38:22.490Z,14.15
2023-04-16T19:40:49.916Z,13.73
2023-04-16T19:43:17.115Z,14.32
2023-04-16T19:45:47.992Z,14.13
2023-04-16T19:48:15.361Z,13.70
2023-04-16T19:50:42.989Z,13.82
2023-04-16T19:53:10.578Z,14.32
2023-04-16T19:55:39.921Z,12.05
2023-04-16T19:58:07.315Z,13.32
2023-04-16T20:00:35.172Z,12.15
2023-04-16T20:03:02.363Z,11.95
2023-04-16T20:05:30.047Z,13.70
2023-04-16T20:07:57.463Z,13.73
2023-04-16T20:10:26.715Z,12.80
2023-04-16T20:12:53.941Z,13.35
2023-04-16T20:15:21.653Z,13.18
2023-04-16T20:17:49.029Z,13.20
2023-04-16T20:20:16.455Z,13.63
2023-04-16T20:22:43.858Z,14.13
2023-04-16T20:25:11.499Z,14.57
2023-04-16T20:27:38.869Z,13.55
2023-04-16T20:30:06.504Z,14.40
2023-04-16T20:32:33.908Z,14.23
2023-04-16T20:35:01.920Z,15.40
2023-04-16T20:37:29.284Z,15.07
2023-04-16T20:39:56.588Z,14.23
2023-04-16T20:42:26.569Z,15.48
2023-04-16T20:44:56.599Z,14.63
2023-04-16T20:47:24.372Z,14.88
2023-04-16T20:49:53.169Z,15.85
2023-04-16T20:52:21.496Z,15.38
2023-04-16T20:54:52.005Z,14.32
2023-04-16T20:57:19.335Z,15.02
2023-04-16T20:59:46.709Z,14.60
2023-04-16T21:02:14.634Z,15.43
2023-04-16T21:04:42.356Z,15.65
2023-04-16T21:07:10.042Z,15.77
2023-04-16T21:09:37.435Z,14.45
2023-04-16T21:12:04.996Z,16.20
2023-04-16T21:14:32.353Z,14.18
2023-04-16T21:16:59.602Z,15.73
2023-04-16T21:19:27.009Z,15.20
2023-04-16T21:21:54.450Z,14.32
2023-04-16T21:24:21.750Z,15.00
2023-04-16T21:26:48.904Z,15.50
2023-04-16T21:29:16.380Z,15.05
2023-04-16T21:31:43.518Z,15.07
2023-04-16T21:34:10.764Z,14.93
2023-04-16T21:36:38.009Z,15.27
2023-04-16T21:39:05.272Z,15.05
2023-04-16T21:41:32.671Z,15.45
2023-04-16T21:44:00.571Z,13.73
2023-04-16T21:46:27.797Z,15.32
2023-04-16T21:48:55.184Z,15.15
2023-04-16T21:51:28.846Z,14.68
2023-04-16T21:53:59.211Z,14.45
2023-04-16T21:58:53.565Z,14.32
2023-04-16T22:01:20.837Z,13.45
2023-04-16T22:03:50.613Z,14.90
2023-04-16T22:06:18.472Z,14.13
2023-04-16T22:08:45.593Z,14.70
2023-04-16T22:11:12.913Z,14.32
2023-04-16T22:13:42.457Z,14.90
2023-04-16T22:16:11.697Z,14.07
2023-04-16T22:18:41.234Z,15.30
2023-04-16T22:21:08.442Z,14.68
2023-04-16T22:23:35.650Z,14.40
2023-04-16T22:26:03.110Z,15.48
2023-04-16T22:28:30.343Z,15.13
2023-04-16T22:30:57.568Z,14.52
2023-04-16T22:33:25.060Z,14.52
2023-04-16T22:35:52.234Z,15.15
2023-04-16T22:38:19.333Z,15.13
2023-04-16T22:40:48.957Z,15.40
2023-04-16T22:43:17.852Z,14.05
2023-04-16T22:45:46.455Z,15.52
2023-04-16T22:48:13.781Z,15.68
2023-04-16T22:50:41.351Z,15.70
2023-04-16T22:53:08.647Z,17.00
2023-04-16T22:55:36.015Z,14.93
2023-04-16T22:58:03.349Z,14.88
2023-04-16T23:00:30.617Z,15.60
2023-04-16T23:02:58.002Z,13.50
2023-04-16T23:05:25.624Z,14.45
2023-04-16T23:07:52.782Z,15.05
2023-04-16T23:10:20.212Z,15.25
2023-04-16T23:12:47.471Z,14.45
2023-04-16T23:15:14.781Z,14.43
2023-04-16T23:17:42.033Z,15.00
2023-04-16T23:20:10.180Z,14.20
2023-04-16T23:22:50.569Z,16.65
2023-04-16T23:25:18.303Z,16.45
2023-04-16T23:27:45.864Z,16.85
2023-04-16T23:30:13.191Z,15.32
2023-04-16T23:32:40.652Z,14.73
2023-04-16T23:35:08.185Z,15.50
2023-04-16T23:37:35.275Z,15.32
2023-04-16T23:40:02.447Z,15.20
2023-04-16T23:42:29.894Z,15.73
2023-04-16T23:44:57.422Z,16.50
2023-04-16T23:47:24.714Z,14.82
2023-04-16T23:49:51.944Z,15.05
2023-04-16T23:52:19.152Z,15.90
2023-04-16T23:54:46.316Z,15.35
2023-04-16T23:57:13.594Z,15.25
2023-04-16T23:59:40.705Z,15.43
